createdAt,value
2023-09-15T00:01:35.709Z,7.30
2023-09-15T00:04:06.575Z,8.63
2023-09-15T00:06:34.084Z,7.10
2023-09-15T00:09:00.612Z,7.35
2023-09-15T00:11:40.536Z,6.50
2023-09-15T00:14:12.147Z,7.55
2023-09-15T00:16:39.969Z,7.00
2023-09-15T00:19:07.581Z,8.30
2023-09-15T00:21:34.591Z,6.25
2023-09-15T00:24:02.206Z,7.18
2023-09-15T00:26:31.774Z,8.30
2023-09-15T00:29:00.149Z,6.18
2023-09-15T00:31:27.173Z,6.07
2023-09-15T00:33:53.879Z,6.18
2023-09-15T00:36:20.595Z,7.18
2023-09-15T00:38:47.921Z,6.15
2023-09-15T00:41:16.785Z,7.25
2023-09-15T00:43:46.453Z,6.50
2023-09-15T00:46:15.654Z,7.18
2023-09-15T00:48:52.409Z,7.50
2023-09-15T00:51:25.728Z,6.75
2023-09-15T00:54:04.232Z,7.68
2023-09-15T00:56:34.197Z,7.72
2023-09-15T00:59:07.586Z,6.70
2023-09-15T01:01:41.136Z,7.50
2023-09-15T01:04:13.394Z,7.05
2023-09-15T01:06:44.239Z,6.05
2023-09-15T01:09:15.621Z,6.85
2023-09-15T01:11:53.504Z,7.38
2023-09-15T01:14:23.113Z,8.07
2023-09-15T01:17:04.318Z,7.40
2023-09-15T01:22:02.714Z,7.93
2023-09-15T01:24:33.058Z,7.65
2023-09-15T01:27:21.917Z,8.70
2023-09-15T01:29:59.371Z,5.68
2023-09-15T01:32:30.986Z,8.45
2023-09-15T01:35:09.948Z,6.00
2023-09-15T01:37:41.500Z,9.88
2023-09-15T01:40:12.090Z,6.13
2023-09-15T01:42:48.094Z,6.15
2023-09-15T01:45:17.641Z,7.85
2023-09-15T01:47:49.593Z,7.65
2023-09-15T01:50:17.958Z,7.25
2023-09-15T01:52:49.488Z,7.45
2023-09-15T01:55:17.280Z,6.97
2023-09-15T01:57:47.360Z,7.15
2023-09-15T02:00:18.312Z,6.03
2023-09-15T02:02:46.176Z,6.85
2023-09-15T02:05:23.151Z,7.28
2023-09-15T02:08:04.390Z,7.75
2023-09-15T02:10:39.266Z,7.28
2023-09-15T02:13:09.208Z,7.60
2023-09-15T02:15:36.743Z,7.30
2023-09-15T02:18:11.152Z,6.15
2023-09-15T02:20:40.972Z,7.05
2023-09-15T02:23:11.810Z,6.28
2023-09-15T02:25:42.724Z,6.95
2023-09-15T02:28:12.785Z,7.70
2023-09-15T02:30:44.192Z,6.93
2023-09-15T02:33:19.536Z,9.05
2023-09-15T02:36:03.923Z,7.60
2023-09-15T02:38:34.828Z,7.03
2023-09-15T02:41:08.096Z,8.48
2023-09-15T02:43:37.740Z,6.88
2023-09-15T02:46:08.353Z,7.13
2023-09-15T02:48:41.627Z,7.75
2023-09-15T02:51:15.459Z,7.28
2023-09-15T02:53:52.823Z,7.00
2023-09-15T02:56:26.383Z,8.90
2023-09-15T02:59:00.542Z,7.70
2023-09-15T03:01:30.779Z,6.95
2023-09-15T03:04:00.403Z,7.88
2023-09-15T03:06:30.179Z,8.95
2023-09-15T03:08:58.055Z,13.73
2023-09-15T03:11:27.793Z,8.57
2023-09-15T03:14:03.101Z,8.82
2023-09-15T03:16:31.514Z,7.72
2023-09-15T03:19:08.614Z,7.90
2023-09-15T03:21:36.641Z,6.95
2023-09-15T03:24:05.875Z,6.95
2023-09-15T03:26:33.701Z,7.25
2023-09-15T03:29:04.084Z,6.57
2023-09-15T03:31:31.651Z,8.13
2023-09-15T03:33:59.416Z,9.20
2023-09-15T03:36:39.615Z,7.28
2023-09-15T03:39:08.139Z,6.85
2023-09-15T03:41:35.857Z,6.88
2023-09-15T03:44:07.355Z,6.97
2023-09-15T03:46:36.603Z,6.47
2023-09-15T03:49:07.608Z,7.47
2023-09-15T03:51:37.609Z,8.13
2023-09-15T03:54:05.219Z,7.28
2023-09-15T03:56:35.907Z,6.43
2023-09-15T03:59:04.699Z,7.05
2023-09-15T04:01:34.821Z,6.63
2023-09-15T04:04:10.749Z,5.65
2023-09-15T04:06:37.874Z,6.45
2023-09-15T04:09:14.121Z,6.80
2023-09-15T04:14:15.836Z,6.45
2023-09-15T04:16:48.035Z,7.53
2023-09-15T04:19:15.717Z,7.88
2023-09-15T04:21:45.412Z,6.20
2023-09-15T04:24:16.072Z,5.82
2023-09-15T04:26:43.581Z,6.40
2023-09-15T04:29:12.124Z,6.43
2023-09-15T04:31:40.461Z,7.88
2023-09-15T04:34:08.643Z,7.63
2023-09-15T04:36:38.338Z,6.75
2023-09-15T04:39:06.828Z,7.63
2023-09-15T04:41:34.622Z,6.28
2023-09-15T04:46:32.705Z,7.10
2023-09-15T04:49:06.789Z,6.47
2023-09-15T04:51:42.781Z,6.57
2023-09-15T04:54:17.155Z,9.02
2023-09-15T04:56:49.783Z,9.80
2023-09-15T04:59:23.278Z,6.07
2023-09-15T05:01:53.911Z,7.63
2023-09-15T05:04:25.794Z,6.95
2023-09-15T05:07:05.063Z,6.35
2023-09-15T05:09:32.995Z,7.72
2023-09-15T05:12:06.147Z,7.38
2023-09-15T05:14:51.449Z,7.75
2023-09-15T05:17:46.084Z,7.05
2023-09-15T05:20:26.292Z,7.50
2023-09-15T05:23:02.454Z,6.75
2023-09-15T05:25:50.080Z,6.68
2023-09-15T05:28:19.414Z,8.20
2023-09-15T05:30:53.332Z,6.47
2023-09-15T05:33:26.480Z,9.13
2023-09-15T05:36:05.869Z,6.95
2023-09-15T05:38:36.323Z,8.60
2023-09-15T05:41:06.568Z,7.75
2023-09-15T05:43:36.944Z,7.10
2023-09-15T05:46:11.455Z,8.50
2023-09-15T05:48:39.666Z,6.90
2023-09-15T05:51:09.814Z,7.95
2023-09-15T05:53:39.676Z,7.45
2023-09-15T05:56:12.418Z,10.82
2023-09-15T05:58:39.631Z,6.40
2023-09-15T06:01:10.697Z,7.10
2023-09-15T06:03:46.756Z,8.63
2023-09-15T06:06:22.820Z,9.85
2023-09-15T06:08:55.396Z,8.25
2023-09-15T06:11:23.011Z,9.07
2023-09-15T06:13:56.274Z,7.60
2023-09-15T06:16:23.932Z,9.43
2023-09-15T06:18:54.825Z,6.95
2023-09-15T06:21:26.096Z,10.07
2023-09-15T06:26:19.230Z,8.07
2023-09-15T06:28:46.118Z,7.63
2023-09-15T06:31:12.856Z,7.10
2023-09-15T06:33:39.372Z,8.63
2023-09-15T06:36:20.150Z,7.65
2023-09-15T06:38:47.673Z,7.35
2023-09-15T06:41:15.227Z,10.93
2023-09-15T06:43:44.997Z,9.15
2023-09-15T06:46:12.578Z,8.30
2023-09-15T06:48:39.956Z,13.30
2023-09-15T06:51:07.514Z,9.80
2023-09-15T06:53:34.821Z,9.77
2023-09-15T06:56:02.091Z,9.68
2023-09-15T06:58:29.578Z,9.68
2023-09-15T07:03:28.026Z,8.85
2023-09-15T07:05:55.442Z,9.02
2023-09-15T07:08:22.425Z,9.07
2023-09-15T07:10:52.746Z,8.48
2023-09-15T07:13:20.197Z,7.07
2023-09-15T07:18:25.463Z,7.63
2023-09-15T07:21:06.185Z,9.18
2023-09-15T07:23:33.671Z,7.60
2023-09-15T07:26:01.416Z,8.45
2023-09-15T07:28:29.832Z,10.57
2023-09-15T07:31:06.421Z,10.25
2023-09-15T07:33:39.394Z,8.68
2023-09-15T07:36:13.149Z,11.73
2023-09-15T07:38:41.403Z,8.75
2023-09-15T07:41:15.177Z,8.93
2023-09-15T07:43:45.013Z,11.98
2023-09-15T07:46:15.549Z,11.63
2023-09-15T07:48:43.340Z,8.77
2023-09-15T07:51:13.349Z,10.93
2023-09-15T07:53:44.141Z,9.85
2023-09-15T07:56:27.419Z,8.27
2023-09-15T07:58:58.833Z,10.20
2023-09-15T08:01:29.119Z,9.98
2023-09-15T08:04:16.180Z,7.80
2023-09-15T08:07:00.908Z,9.80
2023-09-15T08:09:30.928Z,13.65
2023-09-15T08:12:01.034Z,10.35
2023-09-15T08:14:27.832Z,10.13
2023-09-15T08:16:54.468Z,7.32
2023-09-15T08:19:22.011Z,5.22
2023-09-15T08:24:15.169Z,6.15
2023-09-15T08:26:44.664Z,13.10
2023-09-15T08:29:13.049Z,7.80
2023-09-15T08:31:40.528Z,7.03
2023-09-15T08:34:07.133Z,5.57
2023-09-15T08:36:33.683Z,5.55
2023-09-15T08:39:00.179Z,5.53
2023-09-15T08:41:32.464Z,5.40
2023-09-15T08:43:59.562Z,5.97
2023-09-15T08:46:26.979Z,6.47
2023-09-15T08:48:57.331Z,6.72
2023-09-15T08:51:25.487Z,6.43
2023-09-15T08:53:57.567Z,6.40
2023-09-15T08:56:24.896Z,5.45
2023-09-15T09:01:19.585Z,6.38
2023-09-15T09:03:46.994Z,5.60
2023-09-15T09:06:14.732Z,5.13
2023-09-15T09:08:42.172Z,5.55
2023-09-15T09:11:09.270Z,6.35
2023-09-15T09:13:43.865Z,5.82
2023-09-15T09:16:14.408Z,4.75
2023-09-15T09:18:41.911Z,7.47
2023-09-15T09:21:09.361Z,5.47
2023-09-15T09:23:35.950Z,5.80
2023-09-15T09:26:11.236Z,5.93
2023-09-15T09:28:37.948Z,8.63
2023-09-15T09:31:05.167Z,6.00
2023-09-15T09:35:58.991Z,6.22
2023-09-15T09:38:26.548Z,5.68
2023-09-15T09:40:56.587Z,7.53
2023-09-15T09:43:23.150Z,6.70
2023-09-15T09:45:52.634Z,8.52
2023-09-15T09:48:19.396Z,6.00
2023-09-15T09:50:49.645Z,5.82
2023-09-15T09:53:16.308Z,7.28
2023-09-15T09:55:43.392Z,6.97
2023-09-15T09:58:13.873Z,6.90
2023-09-15T10:00:40.649Z,7.25
2023-09-15T10:03:07.370Z,6.55
2023-09-15T10:05:36.164Z,6.18
2023-09-15T10:08:03.753Z,7.28
2023-09-15T10:10:30.628Z,6.10
2023-09-15T10:12:57.492Z,6.45
2023-09-15T10:15:24.152Z,7.13
2023-09-15T10:17:51.890Z,5.85
2023-09-15T10:20:18.728Z,7.45
2023-09-15T10:22:46.498Z,6.25
2023-09-15T10:25:18.024Z,6.22
2023-09-15T10:27:45.558Z,6.07
2023-09-15T10:30:12.285Z,4.85
2023-09-15T10:32:39.684Z,5.07
2023-09-15T10:35:07.086Z,6.65
2023-09-15T10:37:34.986Z,7.50
2023-09-15T10:40:02.705Z,5.45
2023-09-15T10:42:29.455Z,6.47
2023-09-15T10:44:56.029Z,6.35
2023-09-15T10:47:22.622Z,5.25
2023-09-15T10:49:51.226Z,5.97
2023-09-15T10:52:18.095Z,6.72
2023-09-15T10:54:44.834Z,4.82
2023-09-15T10:57:11.624Z,5.35
2023-09-15T10:59:38.633Z,5.93
2023-09-15T11:02:06.015Z,6.05
2023-09-15T11:04:32.583Z,5.32
2023-09-15T11:07:00.294Z,6.75
2023-09-15T11:09:27.188Z,5.07
2023-09-15T11:11:53.978Z,5.90
2023-09-15T11:14:21.252Z,7.25
2023-09-15T11:16:51.325Z,5.95
2023-09-15T11:19:18.791Z,7.60
2023-09-15T11:21:46.251Z,4.85
2023-09-15T11:24:13.302Z,5.20
2023-09-15T11:26:47.157Z,5.82
2023-09-15T11:29:14.074Z,5.78
2023-09-15T11:31:40.811Z,5.90
2023-09-15T11:34:07.857Z,5.97
2023-09-15T11:36:37.272Z,4.90
2023-09-15T11:39:12.164Z,4.70
2023-09-15T11:41:54.801Z,5.43
2023-09-15T11:44:27.672Z,5.15
2023-09-15T11:46:56.730Z,4.95
2023-09-15T11:49:23.883Z,5.05
2023-09-15T11:51:50.752Z,4.65
2023-09-15T11:54:17.515Z,5.05
2023-09-15T11:56:47.021Z,4.28
2023-09-15T11:59:14.671Z,5.40
2023-09-15T12:01:41.730Z,5.22
2023-09-15T12:04:13.260Z,4.43
2023-09-15T12:06:42.077Z,4.00
2023-09-15T12:09:11.773Z,3.47
2023-09-15T12:11:41.219Z,4.30
2023-09-15T12:14:10.185Z,4.78
2023-09-15T12:16:38.243Z,5.20
2023-09-15T12:19:05.693Z,5.15
2023-09-15T12:24:13.125Z,4.32
2023-09-15T12:26:41.487Z,5.22
2023-09-15T12:29:08.024Z,4.85
2023-09-15T12:31:47.657Z,4.15
2023-09-15T12:34:21.526Z,3.78
2023-09-15T12:36:49.515Z,4.75
2023-09-15T12:39:16.624Z,5.78
2023-09-15T12:41:44.369Z,3.63
2023-09-15T12:44:11.718Z,4.47
2023-09-15T12:46:38.374Z,5.00
2023-09-15T12:49:05.314Z,5.80
2023-09-15T12:51:31.926Z,4.20
2023-09-15T12:53:58.473Z,6.32
2023-09-15T12:56:24.942Z,4.05
2023-09-15T12:58:54.482Z,5.15
2023-09-15T13:01:22.103Z,4.55
2023-09-15T13:03:49.101Z,4.22
2023-09-15T13:06:16.358Z,5.70
2023-09-15T13:08:43.521Z,5.07
2023-09-15T13:11:10.037Z,5.25
2023-09-15T13:13:36.608Z,5.60
2023-09-15T13:16:03.178Z,6.05
2023-09-15T13:18:29.792Z,7.03
2023-09-15T13:20:56.613Z,3.88
2023-09-15T13:23:23.284Z,5.70
2023-09-15T13:25:50.066Z,4.43
2023-09-15T13:28:17.135Z,4.78
2023-09-15T13:30:45.309Z,5.07
2023-09-15T13:33:12.116Z,5.60
2023-09-15T13:35:38.806Z,4.07
2023-09-15T13:38:05.543Z,5.72
2023-09-15T13:40:32.858Z,4.53
2023-09-15T13:42:59.763Z,4.15
2023-09-15T13:45:26.424Z,6.18
2023-09-15T13:47:53.039Z,4.15
2023-09-15T13:50:19.910Z,5.28
2023-09-15T13:52:48.080Z,4.50
2023-09-15T13:55:15.461Z,3.60
2023-09-15T13:57:42.015Z,5.68
2023-09-15T14:00:10.685Z,4.68
2023-09-15T14:02:39.632Z,5.15
2023-09-15T14:05:07.569Z,5.40
2023-09-15T14:07:35.895Z,4.70
2023-09-15T14:10:02.495Z,5.45
2023-09-15T14:12:29.573Z,5.63
2023-09-15T14:14:56.072Z,4.57
2023-09-15T14:17:24.459Z,5.43
2023-09-15T14:19:50.934Z,5.38
2023-09-15T14:22:17.429Z,5.43
2023-09-15T14:24:44.128Z,7.15
2023-09-15T14:27:10.802Z,5.15
2023-09-15T14:29:37.610Z,4.47
2023-09-15T14:32:04.793Z,5.13
2023-09-15T14:34:31.355Z,4.47
2023-09-15T14:37:01.327Z,5.50
2023-09-15T14:39:28.892Z,5.13
2023-09-15T14:41:55.864Z,4.95
2023-09-15T14:44:23.140Z,5.68
2023-09-15T14:46:49.857Z,4.57
2023-09-15T14:49:16.666Z,5.32
2023-09-15T14:51:43.283Z,5.85
2023-09-15T14:54:10.193Z,6.13
2023-09-15T14:59:03.468Z,9.35
2023-09-15T15:03:56.770Z,8.30
2023-09-15T15:06:23.473Z,6.15
2023-09-15T15:08:50.454Z,6.82
2023-09-15T15:11:17.317Z,8.27
2023-09-15T15:13:43.916Z,6.35
2023-09-15T15:16:12.497Z,7.22
2023-09-15T15:18:39.334Z,6.40
2023-09-15T15:21:05.870Z,5.72
2023-09-15T15:23:32.439Z,5.57
2023-09-15T15:26:05.401Z,6.63
2023-09-15T15:28:32.230Z,6.18
2023-09-15T15:30:58.921Z,6.75
2023-09-15T15:33:25.915Z,6.18
2023-09-15T15:35:59.932Z,6.70
2023-09-15T15:38:26.579Z,6.32
2023-09-15T15:40:53.225Z,4.93
2023-09-15T15:43:19.869Z,7.20
2023-09-15T15:45:56.794Z,5.63
2023-09-15T15:48:24.412Z,5.03
2023-09-15T15:50:51.421Z,6.18
2023-09-15T15:55:44.551Z,4.30
2023-09-15T15:58:11.555Z,4.72
2023-09-15T16:00:38.686Z,5.90
2023-09-15T16:03:05.420Z,5.32
2023-09-15T16:05:32.078Z,5.63
2023-09-15T16:07:58.599Z,3.97
2023-09-15T16:10:25.136Z,9.25
2023-09-15T16:12:51.692Z,4.43
2023-09-15T16:15:18.246Z,5.38
2023-09-15T16:17:45.262Z,6.68
2023-09-15T16:20:12.055Z,5.93
2023-09-15T16:22:39.386Z,5.03
2023-09-15T16:25:10.501Z,5.55
2023-09-15T16:27:37.113Z,4.65
2023-09-15T16:30:04.337Z,5.65
2023-09-15T16:32:32.235Z,5.07
2023-09-15T16:34:59.923Z,5.05
2023-09-15T16:37:26.742Z,4.63
2023-09-15T16:39:53.678Z,4.63
2023-09-15T16:42:22.629Z,5.13
2023-09-15T16:44:49.146Z,5.13
2023-09-15T16:47:15.678Z,6.53
2023-09-15T16:49:42.286Z,5.32
2023-09-15T16:52:08.787Z,5.28
2023-09-15T16:54:35.558Z,5.15
2023-09-15T16:57:04.042Z,5.30
2023-09-15T16:59:30.600Z,4.88
2023-09-15T17:01:59.202Z,4.85
2023-09-15T17:04:25.963Z,5.82
2023-09-15T17:06:52.586Z,5.25
2023-09-15T17:09:19.192Z,5.97
2023-09-15T17:11:45.866Z,5.30
2023-09-15T17:14:12.858Z,5.53
2023-09-15T17:16:39.605Z,4.97
2023-09-15T17:19:07.760Z,5.18
2023-09-15T17:21:34.469Z,5.25
2023-09-15T17:24:01.070Z,5.70
2023-09-15T17:26:27.633Z,6.45
2023-09-15T17:28:54.304Z,5.45
2023-09-15T17:31:22.008Z,5.65
2023-09-15T17:33:49.317Z,4.80
2023-09-15T17:36:15.952Z,6.03
2023-09-15T17:38:42.973Z,5.28
2023-09-15T17:41:09.913Z,5.93
2023-09-15T17:43:36.858Z,5.20
2023-09-15T17:46:04.427Z,5.90
2023-09-15T17:48:31.058Z,6.70
2023-09-15T17:50:58.684Z,4.88
2023-09-15T17:53:25.267Z,4.90
2023-09-15T17:55:52.528Z,5.28
2023-09-15T18:00:45.431Z,4.57
2023-09-15T18:03:12.013Z,5.97
2023-09-15T18:05:39.039Z,5.18
2023-09-15T18:08:05.650Z,7.15
2023-09-15T18:10:32.200Z,5.40
2023-09-15T18:12:58.982Z,5.22
2023-09-15T18:15:25.663Z,6.20
2023-09-15T18:17:52.311Z,5.35
2023-09-15T18:20:19.113Z,6.53
2023-09-15T18:22:46.114Z,6.80
2023-09-15T18:25:13.197Z,5.93
2023-09-15T18:30:07.820Z,5.68
2023-09-15T18:32:34.384Z,6.20
2023-09-15T18:35:00.988Z,5.70
2023-09-15T18:37:27.470Z,5.90
2023-09-15T18:39:54.076Z,6.18
2023-09-15T18:42:21.290Z,5.82
2023-09-15T18:44:48.143Z,7.30
2023-09-15T18:47:15.341Z,6.40
2023-09-15T18:49:41.967Z,6.10
2023-09-15T18:52:08.440Z,5.75
2023-09-15T18:54:36.780Z,6.43
2023-09-15T18:57:03.564Z,6.55
2023-09-15T18:59:30.075Z,5.68
2023-09-15T19:01:56.519Z,6.78
2023-09-15T19:04:23.068Z,6.10
2023-09-15T19:06:53.003Z,5.72
2023-09-15T19:09:19.612Z,4.70
2023-09-15T19:11:46.300Z,5.70
2023-09-15T19:14:12.801Z,6.40
2023-09-15T19:16:39.460Z,6.53
2023-09-15T19:19:06.265Z,5.00
2023-09-15T19:21:32.893Z,5.28
2023-09-15T19:23:59.526Z,6.47
2023-09-15T19:26:26.204Z,6.13
2023-09-15T19:28:52.776Z,7.40
2023-09-15T19:31:20.340Z,7.35
2023-09-15T19:33:47.310Z,6.18
2023-09-15T19:36:14.016Z,6.20
2023-09-15T19:38:40.923Z,5.30
2023-09-15T19:41:07.438Z,6.00
2023-09-15T19:43:33.942Z,7.60
2023-09-15T19:48:28.573Z,5.50
2023-09-15T19:50:55.143Z,6.32
2023-09-15T19:53:21.757Z,5.07
2023-09-15T19:55:48.265Z,5.72
2023-09-15T19:58:16.599Z,5.78
2023-09-15T20:00:43.230Z,6.43
2023-09-15T20:03:10.469Z,6.50
2023-09-15T20:05:41.711Z,6.00
2023-09-15T20:08:08.437Z,6.57
2023-09-15T20:10:35.052Z,6.35
2023-09-15T20:13:01.627Z,10.38
2023-09-15T20:15:28.697Z,9.40
2023-09-15T20:17:57.275Z,10.23
2023-09-15T20:20:25.963Z,11.30
2023-09-15T20:22:52.541Z,10.60
2023-09-15T20:25:19.077Z,9.15
2023-09-15T20:27:45.735Z,10.32
2023-09-15T20:30:14.425Z,9.55
2023-09-15T20:32:43.123Z,10.50
2023-09-15T20:35:10.425Z,10.93
2023-09-15T20:40:03.735Z,9.63
2023-09-15T20:42:30.352Z,10.15
2023-09-15T20:44:57.503Z,11.50
2023-09-15T20:49:50.674Z,9.85
2023-09-15T20:52:17.322Z,8.75
2023-09-15T20:54:44.435Z,8.23
2023-09-15T20:57:10.988Z,7.75
2023-09-15T20:59:37.603Z,9.77
2023-09-15T21:02:04.460Z,7.82
2023-09-15T21:04:31.142Z,8.63
2023-09-15T21:06:57.913Z,8.55
2023-09-15T21:09:24.969Z,7.53
2023-09-15T21:11:51.765Z,7.18
2023-09-15T21:14:18.521Z,7.97
2023-09-15T21:16:45.180Z,8.20
2023-09-15T21:19:12.319Z,8.45
2023-09-15T21:21:39.183Z,9.63
2023-09-15T21:24:05.945Z,8.68
2023-09-15T21:26:32.492Z,8.80
2023-09-15T21:28:59.777Z,8.55
2023-09-15T21:33:54.762Z,7.95
2023-09-15T21:36:21.759Z,7.43
2023-09-15T21:38:49.539Z,8.57
2023-09-15T21:41:16.823Z,6.50
2023-09-15T21:43:43.615Z,18.92
2023-09-15T21:46:10.247Z,11.18
2023-09-15T21:48:38.779Z,10.82
2023-09-15T21:51:06.088Z,9.98
2023-09-15T21:56:00.475Z,10.15
2023-09-15T21:58:27.263Z,6.28
2023-09-15T22:00:54.039Z,7.95
2023-09-15T22:03:20.997Z,6.63
2023-09-15T22:05:47.702Z,8.13
2023-09-15T22:08:14.641Z,9.70
2023-09-15T22:10:41.320Z,10.45
2023-09-15T22:13:08.642Z,7.75
2023-09-15T22:18:01.878Z,10.05
2023-09-15T22:20:28.563Z,8.13
2023-09-15T22:22:56.684Z,6.50
2023-09-15T22:25:25.441Z,8.38
2023-09-15T22:27:53.193Z,5.75
2023-09-15T22:30:21.301Z,7.95
2023-09-15T22:32:48.501Z,10.13
2023-09-15T22:35:17.993Z,10.77
2023-09-15T22:37:45.144Z,7.07
2023-09-15T22:40:12.408Z,6.32
2023-09-15T22:42:40.291Z,9.25
2023-09-15T22:45:13.645Z,7.43
2023-09-15T22:47:40.681Z,9.50
2023-09-15T22:50:09.287Z,5.85
2023-09-15T22:52:36.062Z,6.50
2023-09-15T22:55:03.497Z,6.68
2023-09-15T22:57:30.172Z,6.40
2023-09-15T22:59:56.968Z,7.03
2023-09-15T23:02:24.741Z,6.78
2023-09-15T23:04:54.542Z,7.10
2023-09-15T23:07:21.105Z,5.78
2023-09-15T23:09:47.715Z,6.25
2023-09-15T23:12:14.675Z,6.10
2023-09-15T23:14:42.459Z,5.32
2023-09-15T23:17:09.841Z,6.22
2023-09-15T23:22:02.981Z,6.30
2023-09-15T23:24:29.917Z,5.10
2023-09-15T23:26:56.587Z,4.80
2023-09-15T23:29:23.216Z,5.63
2023-09-15T23:31:50.734Z,5.65
2023-09-15T23:34:17.809Z,6.90
2023-09-15T23:36:45.044Z,5.00
2023-09-15T23:41:39.390Z,5.88
2023-09-15T23:44:05.964Z,8.10
2023-09-15T23:46:32.982Z,6.43
2023-09-15T23:49:00.053Z,5.43
2023-09-15T23:51:26.958Z,5.90
2023-09-15T23:53:53.598Z,9.32
2023-09-15T23:56:20.102Z,5.82
2023-09-15T23:58:46.965Z,6.57
